Time;durP1;ratioP1;P1;durP2;ratioP2;P2;SDS_P1;SDS_P2;PMS_P1;PMS_P2;Temp;Humidity;BMP_temperature;BMP_pressure;BME280_temperature;BME280_humidity;BME280_pressure;Samples;Min_cycle;Max_cycle;Signal;HPM_P1;HPM_P2
2022/09/09 00:00:54;;;;;;;3.60;1.00;;;;;;;17.68;45.26;100110.41;5151428;27;20030;-66
2022/09/09 00:03:26;;;;;;;2.97;1.08;;;;;;;17.68;45.53;100114.91;5151594;27;20038;-68
2022/09/09 00:06:11;;;;;;;4.18;0.93;;;;;;;17.68;45.11;100118.44;5151709;27;20039;-68
2022/09/09 00:08:54;;;;;;;1.65;0.80;;;;;;;17.66;44.86;100119.56;5150821;27;20054;-67
2022/09/09 00:12:11;;;;;;;3.35;0.70;;;;;;;17.66;44.72;100123.09;5151913;27;20102;-68
2022/09/09 00:14:55;;;;;;;2.13;0.93;;;;;;;17.65;45.18;100124.09;5071967;28;20076;-69
2022/09/09 00:17:58;;;;;;;2.95;1.13;;;;;;;17.63;44.92;100126.06;5156888;27;20175;-66
2022/09/09 00:20:47;;;;;;;3.92;0.73;;;;;;;17.61;45.07;100121.88;5140368;27;20030;-67
2022/09/09 00:23:19;;;;;;;1.33;0.65;;;;;;;17.61;45.15;100117.34;5152781;27;20111;-67
2022/09/09 00:25:59;;;;;;;6.07;2.22;;;;;;;17.61;44.94;100122.69;5150278;27;20122;-68
2022/09/09 00:28:30;;;;;;;4.40;0.68;;;;;;;17.61;45.06;100116.53;5151003;27;20027;-68
2022/09/09 00:30:57;;;;;;;2.10;1.00;;;;;;;17.60;45.07;100122.88;5151312;27;20090;-69
2022/09/09 00:33:24;;;;;;;1.23;0.63;;;;;;;17.60;45.02;100121.00;5150389;27;20098;-67
2022/09/09 00:35:55;;;;;;;2.13;0.82;;;;;;;17.61;45.20;100135.25;5151023;27;20075;-66
2022/09/09 00:38:27;;;;;;;1.10;0.65;;;;;;;17.61;45.14;100132.56;5150970;27;20023;-68
2022/09/09 00:40:52;;;;;;;1.52;0.50;;;;;;;17.59;44.82;100131.88;5150561;27;20153;-67
2022/09/09 00:43:38;;;;;;;5.47;1.10;;;;;;;17.58;44.97;100133.69;5151766;27;20054;-69
2022/09/09 00:46:33;;;;;;;3.15;1.13;;;;;;;17.57;44.97;100132.06;5150344;27;20023;-65
2022/09/09 00:49:37;;;;;;;1.30;0.70;;;;;;;17.57;44.89;100137.41;5150386;27;20107;-65
2022/09/09 00:52:31;;;;;;;1.25;0.77;;;;;;;17.55;44.72;100139.38;5154954;27;20077;-64
2022/09/09 00:55:09;;;;;;;1.02;0.70;;;;;;;17.56;44.77;100140.22;5165900;27;20227;-67
2022/09/09 00:57:35;;;;;;;1.17;0.75;;;;;;;17.54;44.93;100137.69;5153918;27;20031;-66
2022/09/09 01:00:29;;;;;;;1.58;0.80;;;;;;;17.54;44.65;100140.38;5167061;27;20027;-68
2022/09/09 01:03:03;;;;;;;2.13;1.05;;;;;;;17.54;44.85;100149.22;5159447;27;20030;-68
2022/09/09 01:05:56;;;;;;;1.42;0.93;;;;;;;17.53;44.87;100150.22;5161672;27;20053;-68
2022/09/09 01:08:39;;;;;;;1.65;0.90;;;;;;;17.52;45.04;100151.22;5151255;27;20031;-68
2022/09/09 01:11:15;;;;;;;2.63;0.90;;;;;;;17.51;45.01;100151.38;5149967;27;20055;-68
2022/09/09 01:13:46;;;;;;;1.35;0.80;;;;;;;17.52;44.86;100153.88;5150392;27;20110;-65
2022/09/09 01:16:12;;;;;;;3.20;1.05;;;;;;;17.52;44.53;100155.72;5150286;27;20035;-66
2022/09/09 01:18:44;;;;;;;1.45;0.73;;;;;;;17.52;44.51;100151.22;5150140;27;20090;-67
2022/09/09 01:21:21;;;;;;;1.48;0.88;;;;;;;17.52;44.54;100158.41;5150283;27;20039;-66
2022/09/09 01:24:05;;;;;;;1.75;0.80;;;;;;;17.51;44.83;100154.03;5150124;27;20106;-68
2022/09/09 01:26:41;;;;;;;1.83;0.80;;;;;;;17.50;44.81;100158.53;5150054;27;20088;-66
2022/09/09 01:29:13;;;;;;;1.25;0.70;;;;;;;17.51;44.81;100162.06;5150050;27;20140;-65
2022/09/09 01:31:51;;;;;;;2.22;0.68;;;;;;;17.50;44.57;100171.91;5150331;27;20050;-65
2022/09/09 01:34:17;;;;;;;1.77;0.90;;;;;;;17.49;44.70;100175.59;5149859;27;20042;-66
2022/09/09 01:36:51;;;;;;;1.27;0.70;;;;;;;17.50;44.72;100169.25;5150058;27;20059;-66
2022/09/09 01:39:17;;;;;;;1.77;0.70;;;;;;;17.49;44.60;100178.28;5149857;27;20046;-65
2022/09/09 01:41:42;;;;;;;1.40;0.80;;;;;;;17.50;44.93;100173.75;5149852;27;20054;-66
2022/09/09 01:44:09;;;;;;;1.80;0.98;;;;;;;17.47;44.78;100171.38;5149643;27;20038;-68
2022/09/09 01:46:35;;;;;;;1.90;0.93;;;;;;;17.48;44.66;100178.41;5149674;27;20027;-66
2022/09/09 01:49:03;;;;;;;1.75;0.90;;;;;;;17.49;44.90;100182.78;5149650;27;20332;-68
2022/09/09 01:51:29;;;;;;;1.95;0.93;;;;;;;17.47;44.83;100190.97;5149716;27;20050;-65
2022/09/09 01:53:55;;;;;;;1.70;0.90;;;;;;;17.47;44.94;100182.94;5149558;27;20034;-65
2022/09/09 01:57:01;;;;;;;1.58;0.90;;;;;;;17.46;44.84;100183.06;5149655;27;20295;-67
2022/09/09 01:59:53;;;;;;;1.73;0.77;;;;;;;17.45;45.00;100189.41;5153606;27;20030;-67
2022/09/09 02:02:21;;;;;;;;;;;;;;;17.36;44.96;100197.34;5138051;27;20038;-66
2022/09/09 02:04:51;;;;;;;1.02;0.65;;;;;;;17.39;44.94;100196.22;5149927;27;19907;-68
2022/09/09 02:07:27;;;;;;;1.60;0.90;;;;;;;17.40;44.82;100195.22;5144989;27;20094;-69
2022/09/09 02:10:02;;;;;;;1.67;0.77;;;;;;;17.39;44.77;100194.38;5170039;27;20042;-66
2022/09/09 02:12:29;;;;;;;1.88;1.10;;;;;;;17.42;45.19;100195.09;5153482;27;20042;-67
2022/09/09 02:15:02;;;;;;;1.50;0.80;;;;;;;17.41;45.21;100199.56;5149238;27;20042;-66
2022/09/09 02:17:33;;;;;;;2.95;0.73;;;;;;;17.43;44.80;100202.94;5149124;27;20035;-68
2022/09/09 02:20:08;;;;;;;1.95;1.05;;;;;;;17.43;44.48;100202.09;5131037;27;20107;-67
2022/09/09 02:22:39;;;;;;;1.33;0.80;;;;;;;17.43;44.76;100204.75;5148800;27;20271;-66
2022/09/09 02:25:08;;;;;;;1.70;0.90;;;;;;;17.42;44.66;100203.94;5148845;27;20046;-69
2022/09/09 02:27:34;;;;;;;3.30;1.13;;;;;;;17.44;44.91;100206.44;5148915;27;20027;-66
2022/09/09 02:30:02;;;;;;;5.65;1.02;;;;;;;17.44;44.82;100209.13;5154875;27;20026;-68
2022/09/09 02:32:30;;;;;;;1.30;0.98;;;;;;;17.45;44.56;100208.13;5148848;27;20117;-69
2022/09/09 02:35:05;;;;;;;1.48;1.02;;;;;;;17.46;44.63;100210.69;5148342;27;20015;-69
2022/09/09 02:37:36;;;;;;;2.40;1.00;;;;;;;17.48;44.70;100219.41;5148401;27;20015;-67
2022/09/09 02:40:06;;;;;;;3.47;0.85;;;;;;;17.50;45.10;100227.28;5149559;27;20035;-65
2022/09/09 02:42:32;;;;;;;3.58;1.05;;;;;;;17.48;45.24;100213.19;5147169;27;20027;-69
2022/09/09 02:44:58;;;;;;;1.67;0.90;;;;;;;17.49;45.05;100221.09;5148903;27;20050;-67
2022/09/09 02:47:36;;;;;;;2.38;1.00;;;;;;;17.50;45.24;100221.91;5148572;27;20026;-68
2022/09/09 02:50:27;;;;;;;2.30;0.88;;;;;;;17.49;45.18;100225.59;5127951;27;20087;-66
2022/09/09 02:53:07;;;;;;;2.58;0.93;;;;;;;17.49;45.29;100230.94;5136653;27;20019;-66
2022/09/09 02:55:42;;;;;;;1.40;0.77;;;;;;;17.49;44.95;100237.16;5148717;27;20068;-69
2022/09/09 02:58:11;;;;;;;1.77;1.08;;;;;;;17.49;44.96;100233.63;5153851;27;20042;-72
2022/09/09 03:00:39;;;;;;;2.95;0.80;;;;;;;17.49;45.11;100247.00;5169452;27;20030;-69
2022/09/09 03:03:06;;;;;;;3.63;0.95;;;;;;;17.49;45.33;100233.63;5168912;27;20030;-70
2022/09/09 03:05:31;;;;;;;1.70;0.63;;;;;;;17.47;45.18;100231.09;5169091;27;20220;-69
2022/09/09 03:07:58;;;;;;;3.42;0.80;;;;;;;17.47;45.11;100244.47;5157184;27;20074;-68
2022/09/09 03:10:23;;;;;;;2.00;0.90;;;;;;;17.47;45.06;100247.16;5149256;27;20031;-69
2022/09/09 03:12:50;;;;;;;1.67;0.93;;;;;;;17.46;45.21;100244.59;5153969;27;20015;-66
2022/09/09 03:15:16;;;;;;;0.98;0.68;;;;;;;17.47;45.26;100248.97;5147775;27;20068;-67
2022/09/09 03:17:41;;;;;;;1.63;0.80;;;;;;;17.46;45.25;100248.13;5147497;27;20020;-66
2022/09/09 03:20:08;;;;;;;1.88;0.98;;;;;;;17.45;45.05;100240.25;5147774;27;20118;-68
2022/09/09 03:22:34;;;;;;;1.55;0.80;;;;;;;17.45;45.18;100245.59;5148116;27;20166;-67
2022/09/09 03:24:59;;;;;;;1.98;0.70;;;;;;;17.45;45.37;100242.91;5154299;27;20034;-66
2022/09/09 03:27:25;;;;;;;1.08;0.65;;;;;;;17.44;45.39;100254.59;5151849;27;20027;-65
2022/09/09 03:29:51;;;;;;;0.90;0.63;;;;;;;17.45;45.35;100261.66;5151517;27;20026;-68
2022/09/09 03:32:17;;;;;;;2.50;0.80;;;;;;;17.44;45.07;100255.47;5128056;27;20237;-64
2022/09/09 03:34:44;;;;;;;3.10;0.63;;;;;;;17.44;45.21;100257.28;5142335;28;20071;-67
2022/09/09 03:37:09;;;;;;;1.80;0.85;;;;;;;17.45;45.03;100262.50;5147278;27;20015;-67
2022/09/09 03:39:34;;;;;;;1.45;0.85;;;;;;;17.45;44.93;100261.66;5147345;27;20031;-70
2022/09/09 03:42:03;;;;;;;1.88;0.80;;;;;;;17.44;45.00;100270.66;5147620;27;20348;-68
2022/09/09 03:44:29;;;;;;;2.58;0.75;;;;;;;17.44;44.98;100265.31;5148088;27;20144;-69
2022/09/09 03:46:55;;;;;;;1.15;0.80;;;;;;;17.45;44.85;100272.34;5147766;28;20034;-69
2022/09/09 03:49:21;;;;;;;1.30;0.70;;;;;;;17.44;44.91;100276.88;5147489;27;20023;-66
2022/09/09 03:51:47;;;;;;;4.00;0.90;;;;;;;17.46;44.75;100280.25;5148059;27;20023;-71
2022/09/09 03:54:12;;;;;;;1.42;1.00;;;;;;;17.46;44.63;100277.56;5147461;27;20143;-70
2022/09/09 03:56:38;;;;;;;1.33;0.93;;;;;;;17.47;44.61;100278.41;5147642;27;20048;-71
2022/09/09 03:59:04;;;;;;;2.15;0.95;;;;;;;17.47;44.60;100281.06;5148534;27;20034;-69
2022/09/09 04:01:30;;;;;;;2.60;1.20;;;;;;;17.48;44.32;100280.94;5147675;27;20031;-68
2022/09/09 04:03:57;;;;;;;2.53;0.90;;;;;;;17.48;44.73;100294.31;5148473;27;20031;-68
2022/09/09 04:06:24;;;;;;;1.25;0.90;;;;;;;17.49;44.54;100279.09;5147550;28;20023;-70
2022/09/09 04:08:50;;;;;;;1.33;1.13;;;;;;;17.50;44.30;100284.28;5147574;27;20090;-69
2022/09/09 04:11:16;;;;;;;1.98;0.80;;;;;;;17.51;44.21;100285.16;5147572;27;20023;-67
2022/09/09 04:13:42;;;;;;;1.95;1.08;;;;;;;17.52;43.99;100289.50;5147511;27;20030;-67
2022/09/09 04:16:10;;;;;;;2.30;0.85;;;;;;;17.55;43.79;100283.88;5159752;27;20068;-69
2022/09/09 04:18:35;;;;;;;4.22;0.70;;;;;;;17.55;43.67;100291.91;5149176;27;20034;-71
2022/09/09 04:21:01;;;;;;;2.75;1.17;;;;;;;17.57;43.57;100283.72;5147593;27;20015;-69
2022/09/09 04:23:31;;;;;;;1.42;0.82;;;;;;;17.56;43.33;100301.59;5146941;27;20129;-71
2022/09/09 04:25:58;;;;;;;1.50;0.88;;;;;;;17.57;43.33;100291.72;5147242;27;20039;-69
2022/09/09 04:28:27;;;;;;;3.03;0.90;;;;;;;17.60;43.35;100296.78;5147343;27;20207;-70
2022/09/09 04:30:52;;;;;;;1.88;0.98;;;;;;;17.60;43.35;100297.63;5163636;27;20039;-67
2022/09/09 04:33:19;;;;;;;2.33;1.05;;;;;;;17.60;42.91;100286.91;5161207;27;20288;-66
2022/09/09 04:35:47;;;;;;;2.20;1.13;;;;;;;17.61;42.95;100282.44;5152212;27;20030;-70
2022/09/09 04:38:13;;;;;;;1.92;1.13;;;;;;;17.60;43.14;100294.13;5151004;27;20078;-69
2022/09/09 04:40:42;;;;;;;3.38;0.90;;;;;;;17.59;43.04;100295.94;5150947;27;20045;-65
2022/09/09 04:43:08;;;;;;;1.23;0.80;;;;;;;17.60;43.24;100296.78;5147655;27;20140;-70
2022/09/09 04:45:34;;;;;;;1.75;0.85;;;;;;;17.61;43.20;100299.31;5165306;27;20090;-69
2022/09/09 04:48:00;;;;;;;2.13;1.25;;;;;;;17.62;43.11;100298.31;5150454;27;20027;-70
2022/09/09 04:50:26;;;;;;;1.50;0.90;;;;;;;17.63;43.02;100296.50;5150608;27;20077;-69
2022/09/09 04:52:51;;;;;;;2.05;0.82;;;;;;;17.63;42.96;100302.69;5151778;27;20080;-69
2022/09/09 04:55:17;;;;;;;2.05;1.10;;;;;;;17.65;42.70;100303.38;5151741;27;20078;-66
2022/09/09 04:57:42;;;;;;;2.75;1.10;;;;;;;17.64;42.81;100301.69;5143802;27;20039;-66
2022/09/09 05:00:09;;;;;;;1.40;0.77;;;;;;;17.66;42.83;100307.75;5136073;27;20091;-68
2022/09/09 05:02:38;;;;;;;1.33;0.82;;;;;;;17.66;43.14;100309.56;5150079;27;20064;-66
2022/09/09 05:05:04;;;;;;;1.75;0.90;;;;;;;17.66;42.91;100306.88;5150234;27;20019;-68
2022/09/09 05:07:31;;;;;;;1.73;0.90;;;;;;;17.66;43.18;100313.09;5150401;27;20039;-68
2022/09/09 05:09:56;;;;;;;1.65;0.95;;;;;;;17.87;42.55;100314.66;5150480;27;20026;-69
2022/09/09 05:12:24;;;;;;;1.27;0.98;;;;;;;18.32;41.46;100313.03;5150393;27;20158;-67
2022/09/09 05:14:50;;;;;;;5.20;1.20;;;;;;;18.82;39.76;100319.66;5148722;27;20113;-69
2022/09/09 05:17:16;;;;;;;2.67;1.30;;;;;;;19.20;39.07;100322.94;5131853;27;20035;-67
2022/09/09 05:19:41;;;;;;;3.63;1.42;;;;;;;19.41;38.58;100327.13;5146299;27;20019;-67
2022/09/09 05:22:07;;;;;;;3.10;1.48;;;;;;;19.56;38.69;100321.16;5153170;27;20014;-66
2022/09/09 05:24:33;;;;;;;4.15;1.20;;;;;;;19.65;38.64;100320.16;5160313;27;20080;-66
2022/09/09 05:27:01;;;;;;;3.80;1.73;;;;;;;19.77;38.68;100332.34;5149670;27;20054;-68
2022/09/09 05:29:27;;;;;;;1.70;1.20;;;;;;;19.94;38.42;100327.03;5149917;27;20019;-68
2022/09/09 05:31:52;;;;;;;1.63;1.17;;;;;;;19.97;38.58;100326.72;5147360;27;20182;-68
2022/09/09 05:34:18;;;;;;;3.10;1.40;;;;;;;19.87;38.92;100328.69;5149864;27;20250;-66
2022/09/09 05:36:43;;;;;;;1.75;0.80;;;;;;;19.71;39.21;100322.22;5149588;27;20033;-67
2022/09/09 05:39:09;;;;;;;1.73;0.93;;;;;;;19.44;40.19;100328.63;5149757;27;20023;-66
2022/09/09 05:41:35;;;;;;;1.17;0.73;;;;;;;19.22;40.38;100330.88;5149025;27;20086;-71
2022/09/09 05:44:01;;;;;;;1.60;0.75;;;;;;;19.09;40.83;100320.53;5149303;27;20243;-67
2022/09/09 05:46:26;;;;;;;1.92;0.93;;;;;;;19.03;40.69;100334.59;5160096;27;20078;-70
2022/09/09 05:48:53;;;;;;;1.08;0.60;;;;;;;18.97;40.74;100329.84;5170449;27;20027;-67
2022/09/09 05:51:24;;;;;;;0.85;0.60;;;;;;;18.94;40.78;100327.44;5154848;27;20043;-69
2022/09/09 05:53:51;;;;;;;1.45;0.80;;;;;;;18.89;40.71;100335.97;5149515;27;20027;-69
2022/09/09 05:56:27;;;;;;;1.88;0.60;;;;;;;18.87;40.50;100328.09;5149452;27;21002;-67
2022/09/09 05:58:54;;;;;;;0.75;0.60;;;;;;;18.84;40.42;100336.44;5149238;27;20022;-70
2022/09/09 06:01:31;;;;;;;1.23;0.60;;;;;;;18.82;40.31;100340.28;5149375;27;20137;-70
2022/09/09 06:03:56;;;;;;;1.40;0.68;;;;;;;18.80;40.33;100336.91;5149129;27;20079;-67
2022/09/09 06:06:27;;;;;;;2.05;0.90;;;;;;;18.76;40.19;100337.22;5131276;27;20023;-70
2022/09/09 06:08:57;;;;;;;3.20;0.85;;;;;;;18.75;40.18;100334.66;5144960;27;20225;-69
2022/09/09 06:11:30;;;;;;;1.23;0.75;;;;;;;18.71;40.05;100339.50;5168167;27;20078;-66
2022/09/09 06:13:56;;;;;;;2.08;0.80;;;;;;;18.69;39.84;100346.03;5169949;27;20224;-69
2022/09/09 06:16:24;;;;;;;1.10;0.65;;;;;;;18.66;39.66;100340.97;5169904;27;20083;-70
2022/09/09 06:18:50;;;;;;;3.05;0.85;;;;;;;18.64;40.06;100342.94;5153433;27;20031;-68
2022/09/09 06:21:32;;;;;;;3.40;0.75;;;;;;;18.63;39.94;100351.97;5149072;27;20055;-70
2022/09/09 06:24:19;;;;;;;1.30;0.63;;;;;;;18.61;40.31;100344.09;5148880;27;20266;-67
2022/09/09 06:26:45;;;;;;;2.72;0.90;;;;;;;18.61;40.59;100350.28;5148809;27;20054;-70
2022/09/09 06:29:11;;;;;;;2.25;0.50;;;;;;;18.60;40.49;100358.50;5148557;27;20049;-67
2022/09/09 06:31:37;;;;;;;1.33;0.73;;;;;;;18.59;40.67;100351.44;5168517;27;20135;-70
2022/09/09 06:34:07;;;;;;;1.67;0.85;;;;;;;18.58;40.98;100358.66;5163830;27;20023;-67
2022/09/09 06:36:36;;;;;;;3.58;0.68;;;;;;;18.57;41.21;100356.97;5148573;27;20213;-71
2022/09/09 06:39:02;;;;;;;2.78;0.60;;;;;;;18.57;41.08;100354.31;5148580;27;20023;-70
2022/09/09 06:41:42;;;;;;;1.67;0.85;;;;;;;18.57;41.42;100362.34;5148773;27;20156;-70
2022/09/09 06:44:07;;;;;;;2.22;0.90;;;;;;;18.58;41.24;100365.84;5148084;27;20284;-68
2022/09/09 06:46:35;;;;;;;2.13;0.55;;;;;;;18.61;41.09;100362.88;5148625;27;20138;-68
2022/09/09 06:49:02;;;;;;;1.83;0.95;;;;;;;18.59;41.00;100371.06;5148594;27;20026;-68
2022/09/09 06:51:30;;;;;;;1.38;0.60;;;;;;;18.59;41.25;100371.06;5148278;27;20209;-71
2022/09/09 06:53:58;;;;;;;2.75;0.90;;;;;;;18.60;41.23;100369.22;5147984;27;20312;-69
2022/09/09 06:56:27;;;;;;;2.55;0.95;;;;;;;18.61;40.91;100374.41;5165052;27;20279;-69
2022/09/09 06:58:54;;;;;;;0.68;0.50;;;;;;;18.65;40.16;100382.16;5147975;27;20126;-72
2022/09/09 07:01:26;;;;;;;1.45;1.17;;;;;;;18.65;40.08;100383.00;5147610;27;20046;-71
2022/09/09 07:03:54;;;;;;;2.20;0.90;;;;;;;18.65;40.22;100388.38;5150857;27;20038;-70
2022/09/09 07:06:26;;;;;;;2.25;0.80;;;;;;;18.68;40.10;100377.31;5148533;27;20034;-71
2022/09/09 07:08:53;;;;;;;1.80;0.93;;;;;;;18.68;39.85;100381.84;5148894;27;20248;-69
2022/09/09 07:11:20;;;;;;;1.95;0.82;;;;;;;18.69;39.59;100378.19;5131867;27;20035;-65
2022/09/09 07:13:46;;;;;;;3.70;1.10;;;;;;;18.70;39.43;100374.50;5146448;27;20042;-70
2022/09/09 07:16:17;;;;;;;2.97;1.13;;;;;;;18.73;39.37;100384.94;5148025;27;20034;-70
2022/09/09 07:18:43;;;;;;;1.90;0.75;;;;;;;18.74;39.07;100387.44;5147487;27;20046;-70
2022/09/09 07:21:14;;;;;;;1.75;0.75;;;;;;;18.77;39.49;100386.28;5147824;27;20035;-71
2022/09/09 07:23:41;;;;;;;2.80;0.90;;;;;;;18.77;39.34;100383.59;5147742;27;20034;-71
2022/09/09 07:26:17;;;;;;;2.08;0.90;;;;;;;18.80;39.17;100404.75;5147763;27;20100;-67
2022/09/09 07:28:42;;;;;;;3.55;1.10;;;;;;;18.80;39.44;100394.03;5147748;27;20071;-70
2022/09/09 07:31:20;;;;;;;2.10;1.05;;;;;;;18.82;39.18;100394.72;5147855;27;20189;-69
2022/09/09 07:33:46;;;;;;;2.42;0.77;;;;;;;18.84;38.75;100397.25;5147711;27;20051;-69
2022/09/09 07:36:51;;;;;;;0.98;0.60;;;;;;;18.89;38.29;100406.53;5147852;27;20199;-72
2022/09/09 07:39:17;;;;;;;3.08;0.90;;;;;;;18.88;38.45;100404.00;5085081;28;20129;-67
2022/09/09 07:41:46;;;;;;;1.50;0.80;;;;;;;18.89;38.51;100413.72;5083979;28;20063;-67
2022/09/09 07:44:14;;;;;;;1.75;0.90;;;;;;;18.89;38.73;100416.41;5085017;28;20040;-68
2022/09/09 07:46:41;;;;;;;2.03;1.00;;;;;;;18.88;38.46;100423.63;5084763;28;20169;-66
2022/09/09 07:49:08;;;;;;;1.65;0.75;;;;;;;18.90;38.40;100423.44;5084241;28;20028;-68
2022/09/09 07:51:45;;;;;;;2.42;0.95;;;;;;;18.91;38.41;100417.91;5085146;28;20317;-71
2022/09/09 07:54:13;;;;;;;2.20;0.88;;;;;;;18.94;38.44;100426.66;5084864;28;20100;-69
2022/09/09 07:56:40;;;;;;;4.18;1.20;;;;;;;18.91;38.40;100415.25;5084871;28;20044;-72
2022/09/09 07:59:06;;;;;;;2.13;1.13;;;;;;;18.92;38.40;100426.81;5098386;28;20094;-68
2022/09/09 08:01:37;;;;;;;2.65;0.90;;;;;;;18.92;38.52;100433.03;5065325;28;20028;-71
2022/09/09 08:04:16;;;;;;;1.40;0.75;;;;;;;18.89;38.45;100433.34;5066546;28;20043;-70
2022/09/09 08:06:44;;;;;;;2.60;0.95;;;;;;;18.91;38.73;100435.88;5084454;28;20033;-69
2022/09/09 08:09:09;;;;;;;1.67;1.55;;;;;;;18.90;38.79;100429.66;5087613;28;20035;-68
2022/09/09 08:11:35;;;;;;;1.38;1.00;;;;;;;18.90;38.58;100432.31;5088725;28;20032;-70
2022/09/09 08:14:03;;;;;;;2.67;1.25;;;;;;;18.90;38.46;100435.00;5141614;27;20066;-70
2022/09/09 08:16:31;;;;;;;2.95;0.90;;;;;;;18.89;38.34;100432.50;5151525;27;20096;-68
2022/09/09 08:18:57;;;;;;;2.63;1.00;;;;;;;18.90;38.87;100439.53;5151057;27;20092;-71
2022/09/09 08:21:27;;;;;;;1.90;1.10;;;;;;;18.90;38.99;100423.44;5151435;27;20039;-72
2022/09/09 08:23:54;;;;;;;1.52;0.88;;;;;;;18.91;38.67;100436.69;5151136;27;20224;-70
2022/09/09 08:26:24;;;;;;;2.55;1.10;;;;;;;18.93;38.46;100436.56;5151974;27;20051;-71
2022/09/09 08:28:52;;;;;;;1.25;0.70;;;;;;;18.94;38.36;100435.59;5149080;27;20083;-69
2022/09/09 08:31:28;;;;;;;1.63;1.00;;;;;;;18.94;38.39;100440.06;5151247;27;20208;-71
2022/09/09 08:33:55;;;;;;;1.17;0.73;;;;;;;18.91;38.47;100447.41;5151604;27;20051;-72
2022/09/09 08:36:23;;;;;;;2.40;0.90;;;;;;;18.90;38.60;100443.06;5152000;27;20031;-70
2022/09/09 08:38:51;;;;;;;1.20;0.70;;;;;;;18.89;38.40;100446.75;5150368;27;20026;-68
2022/09/09 08:41:46;;;;;;;2.03;0.88;;;;;;;18.91;38.77;100443.91;5144568;27;20047;-71
2022/09/09 08:44:49;;;;;;;2.33;0.98;;;;;;;18.90;38.66;100439.53;5145094;27;20043;-68
2022/09/09 08:47:32;;;;;;;3.17;1.00;;;;;;;18.90;38.80;100439.53;5160896;27;20026;-71
2022/09/09 08:50:24;;;;;;;2.72;1.20;;;;;;;18.92;38.83;100441.06;5171816;27;20046;-69
2022/09/09 08:52:55;;;;;;;;;;;;;;;18.87;39.23;100434.47;5162661;27;20050;-70
2022/09/09 08:55:23;;;;;;;;;;;;;;;18.85;39.44;100436.47;5151137;27;20000;-71
2022/09/09 08:57:55;;;;;;;2.42;0.98;;;;;;;18.88;38.96;100436.16;5150342;27;19923;-69
2022/09/09 09:00:24;;;;;;;1.95;0.73;;;;;;;18.91;38.29;100451.97;5148042;27;20029;-65
2022/09/09 09:03:09;;;;;;;3.85;1.08;;;;;;;18.92;38.45;100454.47;5153860;27;20023;-66
2022/09/09 09:05:44;;;;;;;1.98;0.90;;;;;;;18.92;38.37;100454.47;5149802;27;20058;-68
2022/09/09 09:08:38;;;;;;;2.60;1.20;;;;;;;18.95;38.52;100455.19;5150127;27;20177;-67
2022/09/09 09:11:05;;;;;;;3.13;1.23;;;;;;;18.94;38.93;100458.84;5150107;27;20023;-70
2022/09/09 09:13:56;;;;;;;3.97;0.98;;;;;;;18.92;38.66;100459.84;5149621;27;20053;-70
2022/09/09 09:16:32;;;;;;;5.32;1.83;;;;;;;18.94;38.84;100461.53;5147013;27;20251;-66
2022/09/09 09:18:58;;;;;;;6.60;1.65;;;;;;;18.95;39.06;100452.50;5150144;27;20054;-69
2022/09/09 09:21:41;;;;;;;2.03;0.70;;;;;;;18.97;39.15;100451.34;5150278;27;20019;-68
2022/09/09 09:24:32;;;;;;;2.35;1.00;;;;;;;18.98;39.27;100445.00;5165394;27;20094;-68
2022/09/09 09:30:34;;;;;;;0.90;0.50;;;;;;;18.98;39.03;100447.69;5129816;27;20160;-68
2022/09/09 09:33:12;;;;;;;2.58;0.80;;;;;;;18.97;38.64;100450.53;5145517;27;20071;-69
2022/09/09 09:35:37;;;;;;;3.33;0.98;;;;;;;18.96;38.53;100448.84;5149587;27;20043;-67
2022/09/09 09:38:17;;;;;;;2.85;1.70;;;;;;;18.97;38.68;100453.22;5149816;27;20038;-70
2022/09/09 09:40:50;;;;;;;1.77;0.90;;;;;;;18.95;39.09;100456.06;5150070;27;20015;-69
2022/09/09 09:43:33;;;;;;;0.98;0.68;;;;;;;18.92;39.11;100449.09;5149416;27;20102;-72
2022/09/09 09:46:17;;;;;;;2.63;0.80;;;;;;;18.93;39.52;100452.66;5149406;27;20109;-66
2022/09/09 09:48:42;;;;;;;6.72;0.85;;;;;;;18.94;39.37;100448.13;5131538;27;20181;-67
2022/09/09 09:51:13;;;;;;;2.97;0.80;;;;;;;18.96;39.13;100438.97;5128950;27;20085;-67
2022/09/09 09:53:39;;;;;;;1.55;0.80;;;;;;;18.98;39.25;100442.31;5138881;27;20091;-69
2022/09/09 09:56:07;;;;;;;1.95;0.90;;;;;;;18.99;39.23;100438.63;5149520;27;20046;-68
2022/09/09 09:58:37;;;;;;;2.10;1.00;;;;;;;19.00;38.96;100450.22;5149473;27;20053;-67
2022/09/09 10:01:02;;;;;;;7.10;0.60;;;;;;;19.01;38.96;100446.56;5149370;27;20235;-69
2022/09/09 10:03:32;;;;;;;1.92;0.98;;;;;;;19.00;39.03;100436.81;5148057;27;20038;-70
2022/09/09 10:05:57;;;;;;;3.10;0.73;;;;;;;19.02;39.67;100448.25;5149264;27;20123;-66
2022/09/09 10:08:27;;;;;;;1.52;0.60;;;;;;;19.02;39.22;100451.75;5149195;27;20027;-70
2022/09/09 10:11:14;;;;;;;2.13;1.00;;;;;;;19.04;38.64;100455.13;5149186;27;20220;-67
2022/09/09 10:13:54;;;;;;;3.33;0.98;;;;;;;19.05;38.67;100448.75;5148915;27;21185;-66
2022/09/09 10:16:35;;;;;;;0.98;0.65;;;;;;;19.07;39.67;100453.97;5148912;27;20102;-67
2022/09/09 10:19:15;;;;;;;1.13;0.73;;;;;;;19.08;39.10;100455.66;5135955;27;20051;-65
2022/09/09 10:21:52;;;;;;;3.85;1.02;;;;;;;19.08;38.91;100447.59;5128564;28;20026;-70
2022/09/09 10:24:46;;;;;;;3.03;0.52;;;;;;;19.09;38.65;100453.84;5163610;27;20132;-69
2022/09/09 10:27:30;;;;;;;3.95;0.43;;;;;;;19.09;39.03;100454.66;5169536;27;20057;-68
2022/09/09 10:30:24;;;;;;;2.85;0.70;;;;;;;19.08;38.99;100449.47;5167914;27;20127;-71
2022/09/09 10:33:09;;;;;;;1.10;0.70;;;;;;;19.06;39.05;100454.97;5149011;27;20244;-69
2022/09/09 10:35:58;;;;;;;2.28;1.10;;;;;;;19.05;38.93;100464.84;5147747;27;20023;-69
2022/09/09 10:38:44;;;;;;;2.15;0.77;;;;;;;19.06;38.92;100468.38;5148771;27;20042;-69
2022/09/09 10:41:18;;;;;;;2.10;0.90;;;;;;;19.07;39.41;100462.00;5148774;27;20019;-71
2022/09/09 10:44:00;;;;;;;1.73;0.93;;;;;;;19.08;38.72;100454.81;5149209;27;20083;-64
2022/09/09 10:46:29;;;;;;;2.15;0.90;;;;;;;19.09;39.11;100460.03;5148602;27;20247;-71
2022/09/09 10:49:04;;;;;;;3.22;1.48;;;;;;;19.14;39.15;100446.13;5147131;27;20042;-68
2022/09/09 10:51:35;;;;;;;2.35;0.88;;;;;;;19.15;38.97;100448.69;5148267;27;20027;-69
2022/09/09 10:54:23;;;;;;;4.70;1.20;;;;;;;19.18;40.17;100456.44;5151130;27;20027;-66
2022/09/09 10:57:05;;;;;;;4.25;1.27;;;;;;;19.19;40.62;100451.91;5146833;27;20035;-66
2022/09/09 10:59:50;;;;;;;8.05;1.50;;;;;;;19.19;40.42;100455.41;5148288;27;20087;-64
2022/09/09 11:02:28;;;;;;;1.25;0.82;;;;;;;19.19;39.42;100451.91;5147568;27;20039;-66
2022/09/09 11:05:00;;;;;;;4.72;1.95;;;;;;;19.20;39.91;100453.59;5142541;27;20030;-66
2022/09/09 11:07:43;;;;;;;4.15;1.10;;;;;;;19.20;39.61;100461.63;5154888;27;20114;-65
2022/09/09 11:10:28;;;;;;;6.38;1.48;;;;;;;19.20;40.30;100454.41;5143573;27;20093;-66
2022/09/09 11:12:59;;;;;;;5.13;1.52;;;;;;;19.23;40.71;100452.41;5150524;27;20041;-66
2022/09/09 11:15:41;;;;;;;2.80;0.93;;;;;;;19.23;40.17;100452.41;5151799;27;20027;-65
2022/09/09 11:18:13;;;;;;;4.18;1.27;;;;;;;19.24;39.97;100446.06;5147651;27;20091;-68
2022/09/09 11:20:39;;;;;;;4.25;1.20;;;;;;;19.23;39.17;100452.41;5155682;27;20105;-65
2022/09/09 11:23:11;;;;;;;2.65;0.98;;;;;;;19.25;38.95;100456.66;5150086;27;20031;-68
2022/09/09 11:25:42;;;;;;;4.13;1.02;;;;;;;19.25;38.90;100456.66;5147548;27;20050;-67
2022/09/09 11:28:26;;;;;;;;;;;;;;;19.18;39.17;100459.13;5148227;27;20090;-67
2022/09/09 11:31:03;;;;;;;3.55;1.50;;;;;;;19.21;39.90;100464.16;5147536;27;20168;-64
2022/09/09 11:33:51;;;;;;;2.13;1.13;;;;;;;19.21;39.98;100458.78;5157900;27;20201;-65
2022/09/09 11:36:37;;;;;;;4.22;1.38;;;;;;;19.21;39.87;100457.94;5153139;27;20046;-68
2022/09/09 11:39:31;;;;;;;2.67;1.50;;;;;;;19.21;40.30;100464.16;5143740;27;20034;-67
2022/09/09 11:44:30;;;;;;;1.98;0.80;;;;;;;19.23;39.50;100457.78;5135057;22;20048;-68
2022/09/09 11:46:56;;;;;;;1.70;0.80;;;;;;;19.25;39.24;100450.44;5128141;28;20027;-67
2022/09/09 11:49:42;;;;;;;2.22;0.85;;;;;;;19.24;39.76;100454.97;5127903;28;20030;-67
2022/09/09 11:52:31;;;;;;;2.65;1.10;;;;;;;19.26;39.29;100452.13;5115622;28;20047;-66
2022/09/09 11:54:57;;;;;;;2.67;0.82;;;;;;;19.25;39.81;100448.59;5103333;28;20047;-66
2022/09/09 11:57:35;;;;;;;1.42;0.73;;;;;;;19.28;39.48;100460.84;5107075;28;20087;-64